createdAt,value
2023-01-13T00:02:04.630Z,11.78
2023-01-13T00:07:05.962Z,11.84
2023-01-13T00:12:07.169Z,11.75
2023-01-13T00:17:08.633Z,11.82
2023-01-13T00:22:09.830Z,11.99
2023-01-13T00:27:11.098Z,11.97
2023-01-13T00:32:12.855Z,11.74
2023-01-13T00:37:14.141Z,11.75
2023-01-13T00:42:33.769Z,11.78
2023-01-13T00:47:35.302Z,11.75
2023-01-13T00:52:36.503Z,11.74
2023-01-13T00:57:39.425Z,11.77
2023-01-13T01:02:40.737Z,11.47
2023-01-13T01:07:42.076Z,11.24
2023-01-13T01:12:43.380Z,11.37
2023-01-13T01:17:44.722Z,11.46
2023-01-13T01:22:45.956Z,11.66
2023-01-13T01:27:47.165Z,11.73
2023-01-13T01:32:48.382Z,11.72
2023-01-13T01:37:49.969Z,11.75
2023-01-13T01:43:10.135Z,11.73
2023-01-13T01:48:11.923Z,11.65
2023-01-13T01:53:18.007Z,11.35
2023-01-13T01:58:21.974Z,11.16
2023-01-13T02:03:23.448Z,11.54
2023-01-13T02:08:24.691Z,11.53
2023-01-13T02:13:25.959Z,11.58
2023-01-13T02:19:05.049Z,11.48
2023-01-13T02:24:34.630Z,11.55
2023-01-13T02:30:32.767Z,11.46
2023-01-13T02:35:44.714Z,11.33
2023-01-13T02:40:56.088Z,11.28
2023-01-13T02:46:07.908Z,11.31
2023-01-13T02:51:14.260Z,11.24
2023-01-13T02:56:17.524Z,11.39
2023-01-13T03:01:19.018Z,11.35
2023-01-13T03:06:40.607Z,11.36
2023-01-13T03:12:22.358Z,11.37
2023-01-13T03:17:39.555Z,11.37
2023-01-13T03:22:49.733Z,11.27
2023-01-13T03:27:58.181Z,11.25
2023-01-13T03:33:05.340Z,11.50
2023-01-13T03:38:51.849Z,11.48
2023-01-13T03:44:15.555Z,11.57
2023-01-13T03:49:21.430Z,11.56
2023-01-13T03:54:27.274Z,11.64
2023-01-13T03:59:40.088Z,11.60
2023-01-13T04:04:49.078Z,11.57
2023-01-13T04:09:53.896Z,11.67
2023-01-13T04:14:55.748Z,11.70
2023-01-13T04:19:56.883Z,11.75
2023-01-13T04:24:58.156Z,11.79
2023-01-13T04:29:59.504Z,11.85
2023-01-13T04:35:00.649Z,11.79
2023-01-13T04:40:02.016Z,11.92
2023-01-13T04:45:03.893Z,11.77
2023-01-13T04:50:05.462Z,11.82
2023-01-13T04:55:07.850Z,11.89
2023-01-13T05:00:11.655Z,11.88
2023-01-13T05:05:12.831Z,11.93
2023-01-13T05:10:14.427Z,12.07
2023-01-13T05:15:34.500Z,11.86
2023-01-13T05:20:35.771Z,11.89
2023-01-13T05:25:40.052Z,11.79
2023-01-13T05:30:43.504Z,11.79
2023-01-13T05:35:46.608Z,11.80
2023-01-13T05:41:06.822Z,11.86
2023-01-13T05:46:09.454Z,11.94
2023-01-13T05:51:12.329Z,11.94
2023-01-13T05:56:13.590Z,12.03
2023-01-13T06:01:15.353Z,12.08
2023-01-13T06:06:16.579Z,12.16
2023-01-13T06:11:17.818Z,12.00
2023-01-13T06:16:19.160Z,11.98
2023-01-13T06:21:20.650Z,11.99
2023-01-13T06:26:24.469Z,12.01
2023-01-13T06:31:27.855Z,12.06
2023-01-13T06:36:37.263Z,12.14
2023-01-13T06:42:02.521Z,12.34
2023-01-13T06:47:04.076Z,12.36
2023-01-13T06:52:05.340Z,12.38
2023-01-13T06:57:06.587Z,12.35
2023-01-13T07:02:08.000Z,12.42
2023-01-13T07:07:09.457Z,12.57
2023-01-13T07:12:13.871Z,12.61
2023-01-13T07:17:15.213Z,12.75
2023-01-13T07:22:16.588Z,12.80
2023-01-13T07:27:17.836Z,12.87
2023-01-13T07:32:19.066Z,12.79
2023-01-13T07:37:20.329Z,12.82
2023-01-13T07:42:40.642Z,12.72
2023-01-13T07:47:41.877Z,12.65
2023-01-13T07:52:43.129Z,12.78
2023-01-13T07:57:44.693Z,12.81
2023-01-13T08:02:46.118Z,12.82
2023-01-13T08:07:47.444Z,12.87
2023-01-13T08:13:06.942Z,12.98
2023-01-13T08:18:08.276Z,13.09
2023-01-13T08:23:12.012Z,13.14
2023-01-13T08:28:15.376Z,13.03
2023-01-13T08:33:16.789Z,13.19
2023-01-13T08:38:18.396Z,13.31
2023-01-13T08:43:19.713Z,13.32
2023-01-13T08:48:20.859Z,13.23
2023-01-13T08:53:22.049Z,13.24
2023-01-13T08:58:23.578Z,13.09
2023-01-13T09:03:24.888Z,13.05
2023-01-13T09:08:26.380Z,13.04
2023-01-13T09:13:27.612Z,13.02
2023-01-13T09:18:28.837Z,13.07
2023-01-13T09:23:30.026Z,13.12
2023-01-13T09:28:31.834Z,13.13
2023-01-13T09:33:51.675Z,13.25
2023-01-13T09:38:52.953Z,13.33
2023-01-13T09:43:58.614Z,13.29
2023-01-13T09:49:02.836Z,13.30
2023-01-13T09:54:25.103Z,13.35
2023-01-13T09:59:31.899Z,13.47
2023-01-13T10:04:33.153Z,13.57
2023-01-13T10:09:53.943Z,13.59
2023-01-13T10:14:55.492Z,13.61
2023-01-13T10:20:15.341Z,13.40
2023-01-13T10:25:35.443Z,13.24
2023-01-13T10:30:40.514Z,13.21
2023-01-13T10:36:01.657Z,13.15
2023-01-13T10:41:17.371Z,13.22
2023-01-13T10:46:20.684Z,13.40
2023-01-13T10:51:24.166Z,13.44
2023-01-13T10:56:33.916Z,13.52
2023-01-13T11:02:23.846Z,13.64
2023-01-13T11:07:34.729Z,13.58
2023-01-13T11:12:46.387Z,13.66
2023-01-13T11:18:01.353Z,13.65
2023-01-13T11:23:25.202Z,13.64
2023-01-13T11:28:44.109Z,13.62
2023-01-13T11:34:24.277Z,13.61
2023-01-13T11:39:47.316Z,13.58
2023-01-13T11:45:16.809Z,13.61
2023-01-13T11:50:45.272Z,13.54
2023-01-13T11:56:02.629Z,13.55
2023-01-13T12:01:42.836Z,13.57
2023-01-13T12:06:49.183Z,13.48
2023-01-13T12:12:33.061Z,13.50
2023-01-13T12:17:49.812Z,13.56
2023-01-13T12:22:56.852Z,13.37
2023-01-13T12:28:02.631Z,13.24
2023-01-13T12:33:29.443Z,13.25
2023-01-13T12:38:37.369Z,13.36
2023-01-13T12:44:04.572Z,13.45
2023-01-13T12:49:17.813Z,13.50
2023-01-13T12:54:39.015Z,13.46
2023-01-13T12:59:41.816Z,13.45
2023-01-13T13:04:51.737Z,13.41
2023-01-13T13:10:18.822Z,13.22
2023-01-13T13:15:24.631Z,13.22
2023-01-13T13:21:05.431Z,13.31
2023-01-13T13:26:26.713Z,13.53
2023-01-13T13:32:14.292Z,13.37
2023-01-13T13:37:55.191Z,13.37
2023-01-13T13:43:16.983Z,13.42
2023-01-13T13:48:39.585Z,13.28
2023-01-13T13:53:42.624Z,13.28
2023-01-13T13:58:48.170Z,13.20
2023-01-13T14:04:11.736Z,12.93
2023-01-13T14:09:17.273Z,13.04
2023-01-13T14:14:21.051Z,13.01
2023-01-13T14:19:45.623Z,13.02
2023-01-13T14:24:55.196Z,12.70
2023-01-13T14:30:00.739Z,12.66
2023-01-13T14:35:07.858Z,12.61
2023-01-13T14:40:33.366Z,12.64
2023-01-13T14:45:36.170Z,12.61
2023-01-13T14:50:38.946Z,12.55
2023-01-13T14:55:42.104Z,12.56
2023-01-13T15:00:44.842Z,12.56
2023-01-13T15:05:52.333Z,12.52
2023-01-13T15:11:00.966Z,12.51
2023-01-13T15:16:26.203Z,12.61
2023-01-13T15:21:29.291Z,12.68
2023-01-13T15:26:33.304Z,12.72
2023-01-13T15:31:35.854Z,12.68
2023-01-13T15:36:39.726Z,12.62
2023-01-13T15:42:00.913Z,12.72
2023-01-13T15:47:07.477Z,12.59
2023-01-13T15:52:21.760Z,12.78
2023-01-13T15:57:30.609Z,12.75
2023-01-13T16:02:33.674Z,12.64
2023-01-13T16:07:36.949Z,12.84
2023-01-13T16:12:39.896Z,12.88
2023-01-13T16:17:45.407Z,12.86
2023-01-13T16:22:48.481Z,12.66
2023-01-13T16:27:52.368Z,12.62
2023-01-13T16:32:55.773Z,12.62
2023-01-13T16:37:59.699Z,12.66
2023-01-13T16:43:04.048Z,12.57
2023-01-13T16:48:07.089Z,12.55
2023-01-13T16:53:11.498Z,12.60
2023-01-13T16:58:19.972Z,12.65
2023-01-13T17:03:22.702Z,12.69
2023-01-13T17:08:25.399Z,12.70
2023-01-13T17:13:28.312Z,12.76
2023-01-13T17:18:31.010Z,12.83
2023-01-13T17:23:34.449Z,12.76
2023-01-13T17:28:37.567Z,12.92
2023-01-13T17:33:40.145Z,12.91
2023-01-13T17:38:42.724Z,12.92
2023-01-13T17:43:45.409Z,12.76
2023-01-13T17:48:55.309Z,12.95
2023-01-13T17:53:57.833Z,13.00
2023-01-13T17:59:00.414Z,12.97
2023-01-13T18:04:03.255Z,13.03
2023-01-13T18:09:06.026Z,13.02
2023-01-13T18:14:09.849Z,13.05
2023-01-13T18:19:31.191Z,13.09
2023-01-13T18:24:52.531Z,13.05
2023-01-13T18:29:57.391Z,12.87
2023-01-13T18:35:06.759Z,12.78
2023-01-13T18:40:12.460Z,12.66
2023-01-13T18:45:15.319Z,12.64
2023-01-13T18:50:18.767Z,12.66
2023-01-13T18:55:22.400Z,12.69
2023-01-13T19:00:27.185Z,12.71
2023-01-13T19:05:29.756Z,12.77
2023-01-13T19:10:32.790Z,12.78
2023-01-13T19:15:37.165Z,12.80
2023-01-13T19:20:39.925Z,12.71
2023-01-13T19:25:42.656Z,12.60
2023-01-13T19:30:45.230Z,12.65
2023-01-13T19:35:50.031Z,12.66
2023-01-13T19:41:31.604Z,12.70
2023-01-13T19:46:34.887Z,12.54
2023-01-13T19:51:37.533Z,12.50
2023-01-13T19:56:40.226Z,12.50
2023-01-13T20:01:43.044Z,12.54
2023-01-13T20:06:46.454Z,12.55
2023-01-13T20:11:52.682Z,12.40
2023-01-13T20:16:55.968Z,12.24
2023-01-13T20:21:59.183Z,12.13
2023-01-13T20:27:03.041Z,12.03
2023-01-13T20:32:05.737Z,11.96
2023-01-13T20:37:08.328Z,11.88
2023-01-13T20:42:29.579Z,11.77
2023-01-13T20:47:32.340Z,11.69
2023-01-13T20:52:35.343Z,11.69
2023-01-13T20:57:38.045Z,11.61
2023-01-13T21:02:41.739Z,11.50
2023-01-13T21:07:44.801Z,11.47
2023-01-13T21:13:10.479Z,11.24
2023-01-13T21:18:31.656Z,10.97
2023-01-13T21:23:34.125Z,10.98
2023-01-13T21:28:37.119Z,11.15
2023-01-13T21:33:39.913Z,11.23
2023-01-13T21:38:42.717Z,11.21
2023-01-13T21:44:04.145Z,11.16
2023-01-13T21:49:07.309Z,11.04
2023-01-13T21:54:09.885Z,10.80
2023-01-13T21:59:12.630Z,11.01
2023-01-13T22:04:15.254Z,11.07
2023-01-13T22:09:18.193Z,11.05
2023-01-13T22:14:21.319Z,11.01
2023-01-13T22:19:24.859Z,10.97
2023-01-13T22:24:30.029Z,10.90
2023-01-13T22:29:32.629Z,10.77
2023-01-13T22:34:36.290Z,10.73
2023-01-13T22:39:39.361Z,10.69
2023-01-13T22:44:42.977Z,10.54
2023-01-13T22:49:47.723Z,10.52
2023-01-13T22:54:50.368Z,10.52
2023-01-13T22:59:52.972Z,10.39
2023-01-13T23:04:55.606Z,10.29
2023-01-13T23:10:00.013Z,10.17
2023-01-13T23:15:03.486Z,10.13
2023-01-13T23:20:06.315Z,10.13
2023-01-13T23:25:09.837Z,10.15
2023-01-13T23:30:12.567Z,10.20
2023-01-13T23:35:15.114Z,10.14
2023-01-13T23:40:17.798Z,10.13
2023-01-13T23:45:20.287Z,10.18
2023-01-13T23:50:22.822Z,10.29
2023-01-13T23:55:25.877Z,10.31
